createdAt,value
2022-10-09T00:01:32.999Z,57.90
2022-10-09T00:03:36.000Z,58.18
2022-10-09T00:05:37.849Z,58.29
2022-10-09T00:07:39.589Z,58.35
2022-10-09T00:09:41.214Z,58.50
2022-10-09T00:11:42.943Z,58.46
2022-10-09T00:13:45.559Z,58.75
2022-10-09T00:15:47.793Z,58.92
2022-10-09T00:17:49.542Z,58.70
2022-10-09T00:19:51.198Z,58.58
2022-10-09T00:21:52.797Z,58.52
2022-10-09T00:23:57.047Z,58.74
2022-10-09T00:26:01.478Z,59.05
2022-10-09T00:28:04.961Z,59.08
2022-10-09T00:30:07.281Z,58.97
2022-10-09T00:32:08.947Z,58.96
2022-10-09T00:34:10.697Z,58.88
2022-10-09T00:36:15.415Z,59.01
2022-10-09T00:38:17.337Z,58.92
2022-10-09T00:40:18.986Z,59.08
2022-10-09T00:42:26.067Z,58.78
2022-10-09T00:44:51.809Z,58.84
2022-10-09T00:46:53.660Z,58.71
2022-10-09T00:49:09.076Z,59.03
2022-10-09T00:51:10.895Z,59.02
2022-10-09T00:53:15.791Z,59.16
2022-10-09T00:55:18.670Z,59.48
2022-10-09T00:57:20.734Z,59.45
2022-10-09T00:59:36.340Z,59.23
2022-10-09T01:01:40.588Z,59.18
2022-10-09T01:03:42.386Z,59.03
2022-10-09T01:06:34.231Z,59.48
2022-10-09T01:08:55.306Z,59.35
2022-10-09T01:11:05.349Z,59.31
2022-10-09T01:13:15.112Z,59.04
2022-10-09T01:15:37.914Z,59.19
2022-10-09T01:17:51.652Z,58.83
2022-10-09T01:20:23.229Z,59.02
2022-10-09T01:22:33.462Z,58.62
2022-10-09T01:24:41.302Z,58.86
2022-10-09T01:26:56.295Z,58.73
2022-10-09T01:29:02.717Z,58.99
2022-10-09T01:31:06.566Z,58.71
2022-10-09T01:33:09.508Z,58.31
2022-10-09T01:35:13.330Z,58.47
2022-10-09T01:37:17.377Z,58.41
2022-10-09T01:39:25.763Z,58.68
2022-10-09T01:41:27.725Z,58.29
2022-10-09T01:43:29.494Z,58.79
2022-10-09T01:45:43.497Z,58.44
2022-10-09T01:47:45.187Z,58.60
2022-10-09T01:50:11.681Z,58.43
2022-10-09T01:52:48.919Z,58.29
2022-10-09T01:55:21.127Z,58.35
2022-10-09T01:57:32.752Z,58.29
2022-10-09T01:59:41.922Z,58.19
2022-10-09T02:01:46.179Z,58.73
2022-10-09T02:03:52.135Z,58.57
2022-10-09T02:05:56.958Z,58.66
2022-10-09T02:07:59.504Z,57.99
2022-10-09T02:10:03.004Z,57.88
2022-10-09T02:12:08.083Z,57.96
2022-10-09T02:14:09.970Z,58.01
2022-10-09T02:16:14.808Z,57.56
2022-10-09T02:18:24.989Z,57.84
2022-10-09T02:20:33.120Z,57.73
2022-10-09T02:22:36.355Z,58.20
2022-10-09T02:24:39.825Z,57.85
2022-10-09T02:26:42.436Z,57.98
2022-10-09T02:28:46.139Z,57.92
2022-10-09T02:30:56.663Z,58.10
2022-10-09T02:32:58.429Z,58.58
2022-10-09T02:35:00.201Z,58.33
2022-10-09T02:37:02.335Z,58.49
2022-10-09T02:39:05.926Z,58.72
2022-10-09T02:41:07.658Z,58.82
2022-10-09T02:43:09.360Z,58.65
2022-10-09T02:45:11.158Z,58.63
2022-10-09T02:47:12.825Z,58.66
2022-10-09T02:49:14.587Z,58.66
2022-10-09T02:51:16.338Z,59.21
2022-10-09T02:53:17.966Z,59.15
2022-10-09T02:55:19.581Z,58.74
2022-10-09T02:57:21.324Z,59.43
2022-10-09T02:59:33.318Z,59.51
2022-10-09T03:01:35.318Z,59.07
2022-10-09T03:03:37.045Z,59.20
2022-10-09T03:05:38.674Z,59.40
2022-10-09T03:07:40.424Z,59.38
2022-10-09T03:09:42.144Z,59.46
2022-10-09T03:11:43.814Z,59.76
2022-10-09T03:13:46.052Z,59.77
2022-10-09T03:15:47.757Z,59.70
2022-10-09T03:17:49.505Z,59.74
2022-10-09T03:19:51.179Z,59.43
2022-10-09T03:21:52.792Z,59.92
2022-10-09T03:23:55.299Z,59.90
2022-10-09T03:26:01.571Z,59.72
2022-10-09T03:28:03.575Z,59.47
2022-10-09T03:30:06.015Z,59.77
2022-10-09T03:32:08.041Z,59.60
2022-10-09T03:34:11.734Z,59.79
2022-10-09T03:36:13.574Z,60.00
2022-10-09T03:38:20.482Z,59.70
2022-10-09T03:40:22.126Z,59.85
2022-10-09T03:42:24.219Z,60.00
2022-10-09T03:44:25.880Z,59.99
2022-10-09T03:46:28.250Z,60.00
2022-10-09T03:48:29.931Z,59.79
2022-10-09T03:50:31.592Z,59.96
2022-10-09T03:52:33.259Z,59.83
2022-10-09T03:54:35.015Z,59.60
2022-10-09T03:56:36.714Z,59.91
2022-10-09T03:58:38.347Z,59.73
2022-10-09T04:00:40.069Z,59.88
2022-10-09T04:02:41.768Z,59.69
2022-10-09T04:04:43.465Z,59.73
2022-10-09T04:06:45.374Z,59.83
2022-10-09T04:08:47.065Z,59.78
2022-10-09T04:10:48.694Z,60.12
2022-10-09T04:12:50.650Z,59.92
2022-10-09T04:14:52.489Z,59.87
2022-10-09T04:16:54.393Z,59.69
2022-10-09T04:18:56.055Z,59.77
2022-10-09T04:20:57.739Z,59.83
2022-10-09T04:22:59.578Z,60.02
2022-10-09T04:25:01.238Z,59.76
2022-10-09T04:27:02.960Z,59.90
2022-10-09T04:29:04.731Z,60.19
2022-10-09T04:31:06.494Z,60.12
2022-10-09T04:33:12.788Z,60.24
2022-10-09T04:35:14.879Z,60.30
2022-10-09T04:37:16.647Z,60.14
2022-10-09T04:39:18.409Z,60.18
2022-10-09T04:41:21.644Z,60.52
2022-10-09T04:43:23.285Z,60.69
2022-10-09T04:45:24.951Z,60.68
2022-10-09T04:47:26.652Z,60.50
2022-10-09T04:49:28.322Z,60.65
2022-10-09T04:51:29.986Z,60.63
2022-10-09T04:53:32.039Z,60.60
2022-10-09T04:55:38.360Z,61.06
2022-10-09T04:57:40.010Z,60.85
2022-10-09T04:59:41.703Z,60.33
2022-10-09T05:01:43.422Z,60.47
2022-10-09T05:03:45.505Z,60.33
2022-10-09T05:05:47.301Z,60.33
2022-10-09T05:07:49.192Z,60.25
2022-10-09T05:09:50.885Z,60.14
2022-10-09T05:11:52.501Z,60.59
2022-10-09T05:13:56.026Z,60.19
2022-10-09T05:16:01.182Z,60.53
2022-10-09T05:18:02.978Z,59.99
2022-10-09T05:20:04.926Z,60.22
2022-10-09T05:22:06.640Z,59.92
2022-10-09T05:24:10.374Z,60.25
2022-10-09T05:26:15.866Z,60.02
2022-10-09T05:28:27.121Z,60.18
2022-10-09T05:30:28.800Z,59.94
2022-10-09T05:32:30.392Z,60.26
2022-10-09T05:34:34.359Z,60.37
2022-10-09T05:36:36.668Z,61.28
2022-10-09T05:38:38.375Z,60.84
2022-10-09T05:40:40.053Z,61.00
2022-10-09T05:42:41.809Z,61.03
2022-10-09T05:44:43.483Z,61.37
2022-10-09T05:46:45.227Z,61.21
2022-10-09T05:48:54.973Z,61.38
2022-10-09T05:51:07.316Z,61.13
2022-10-09T05:53:08.961Z,61.33
2022-10-09T05:55:10.589Z,61.49
2022-10-09T05:57:12.269Z,61.57
2022-10-09T05:59:21.776Z,61.59
2022-10-09T06:01:25.776Z,61.55
2022-10-09T06:03:27.428Z,61.53
2022-10-09T06:05:29.064Z,61.92
2022-10-09T06:07:31.087Z,61.82
2022-10-09T06:09:32.761Z,61.40
2022-10-09T06:11:36.410Z,61.63
2022-10-09T06:13:38.326Z,62.12
2022-10-09T06:15:40.095Z,61.68
2022-10-09T06:17:41.702Z,62.25
2022-10-09T06:19:43.371Z,62.08
2022-10-09T06:21:45.733Z,62.70
2022-10-09T06:23:51.934Z,62.77
2022-10-09T06:25:58.006Z,62.35
2022-10-09T06:27:59.715Z,62.55
2022-10-09T06:30:01.428Z,62.44
2022-10-09T06:32:03.074Z,62.79
2022-10-09T06:34:04.928Z,62.69
2022-10-09T06:36:10.657Z,62.75
2022-10-09T06:38:21.640Z,62.32
2022-10-09T06:40:23.144Z,62.47
2022-10-09T06:42:24.820Z,62.47
2022-10-09T06:44:27.285Z,62.57
2022-10-09T06:46:32.684Z,62.75
2022-10-09T06:48:36.192Z,62.87
2022-10-09T06:50:38.174Z,63.04
2022-10-09T06:52:39.999Z,63.17
2022-10-09T06:54:41.668Z,63.04
2022-10-09T06:56:43.578Z,63.22
2022-10-09T06:58:46.093Z,63.32
2022-10-09T07:00:48.108Z,62.90
2022-10-09T07:02:50.687Z,62.93
2022-10-09T07:04:52.547Z,63.09
2022-10-09T07:06:54.168Z,63.01
2022-10-09T07:08:59.663Z,63.29
2022-10-09T07:11:08.497Z,62.86
2022-10-09T07:13:10.101Z,62.99
2022-10-09T07:15:11.964Z,62.88
2022-10-09T07:17:13.654Z,62.76
2022-10-09T07:19:17.761Z,63.04
2022-10-09T07:21:19.998Z,62.61
2022-10-09T07:23:21.691Z,62.94
2022-10-09T07:25:23.380Z,62.85
2022-10-09T07:27:25.027Z,62.77
2022-10-09T07:29:26.723Z,63.00
2022-10-09T07:31:28.607Z,63.13
2022-10-09T07:33:30.371Z,63.02
2022-10-09T07:35:32.143Z,62.91
2022-10-09T07:37:33.787Z,62.41
2022-10-09T07:39:35.701Z,62.39
2022-10-09T07:41:37.497Z,62.38
2022-10-09T07:43:41.091Z,62.48
2022-10-09T07:45:43.264Z,62.45
2022-10-09T07:47:44.972Z,62.49
2022-10-09T07:49:46.700Z,62.06
2022-10-09T07:51:48.392Z,61.86
2022-10-09T07:53:51.070Z,61.90
2022-10-09T07:55:52.777Z,61.76
2022-10-09T07:57:54.462Z,62.07
2022-10-09T07:59:56.130Z,61.88
2022-10-09T08:01:57.926Z,61.92
2022-10-09T08:04:00.689Z,61.56
2022-10-09T08:06:03.186Z,61.86
2022-10-09T08:08:04.982Z,61.70
2022-10-09T08:10:07.041Z,61.62
2022-10-09T08:12:08.686Z,61.79
2022-10-09T08:14:18.221Z,61.83
2022-10-09T08:16:22.940Z,61.97
2022-10-09T08:18:24.614Z,61.95
2022-10-09T08:20:26.379Z,61.55
2022-10-09T08:22:28.022Z,61.91
2022-10-09T08:24:29.820Z,62.18
2022-10-09T08:26:31.804Z,61.72
2022-10-09T08:28:33.557Z,61.32
2022-10-09T08:30:35.281Z,61.41
2022-10-09T08:32:37.221Z,61.86
2022-10-09T08:34:39.064Z,61.61
2022-10-09T08:36:40.833Z,61.72
2022-10-09T08:38:48.219Z,61.57
2022-10-09T08:41:03.323Z,61.69
2022-10-09T08:43:07.346Z,61.64
2022-10-09T08:45:19.566Z,61.52
2022-10-09T08:47:34.598Z,61.49
2022-10-09T08:50:06.077Z,61.44
2022-10-09T08:52:30.863Z,61.42
2022-10-09T08:54:38.314Z,60.82
2022-10-09T08:56:39.945Z,60.86
2022-10-09T08:58:43.673Z,60.65
2022-10-09T09:00:49.000Z,61.33
2022-10-09T09:03:19.523Z,60.68
2022-10-09T09:05:34.189Z,60.21
2022-10-09T09:07:35.771Z,59.93
2022-10-09T09:09:54.967Z,59.79
2022-10-09T09:12:00.935Z,59.70
2022-10-09T09:14:20.181Z,59.56
2022-10-09T09:16:53.775Z,59.13
2022-10-09T09:19:28.404Z,58.78
2022-10-09T09:21:36.163Z,58.63
2022-10-09T09:23:42.706Z,58.30
2022-10-09T09:25:46.208Z,58.23
2022-10-09T09:27:48.828Z,57.80
2022-10-09T09:30:16.455Z,57.52
2022-10-09T09:32:22.205Z,57.10
2022-10-09T09:34:42.067Z,56.48
2022-10-09T09:36:49.751Z,56.32
2022-10-09T09:39:44.294Z,55.57
2022-10-09T09:41:14.366Z,55.14
2022-10-09T09:43:23.300Z,54.64
2022-10-09T09:45:26.720Z,54.88
2022-10-09T09:47:34.957Z,54.33
2022-10-09T09:49:36.597Z,54.21
2022-10-09T09:51:38.468Z,54.17
2022-10-09T09:53:42.373Z,53.53
2022-10-09T09:55:44.196Z,52.98
2022-10-09T09:57:46.210Z,52.95
2022-10-09T09:59:51.249Z,52.46
2022-10-09T10:02:04.553Z,52.21
2022-10-09T10:04:19.824Z,52.32
2022-10-09T10:06:31.634Z,52.66
2022-10-09T10:08:36.521Z,52.66
2022-10-09T10:10:44.451Z,52.25
2022-10-09T10:12:58.824Z,52.47
2022-10-09T10:15:00.679Z,52.27
2022-10-09T10:17:03.422Z,51.88
2022-10-09T10:19:29.159Z,51.92
2022-10-09T10:21:40.090Z,51.57
2022-10-09T10:26:24.932Z,52.06
2022-10-09T10:28:45.655Z,51.67
2022-10-09T10:30:49.873Z,51.54
2022-10-09T10:33:01.917Z,51.45
2022-10-09T10:35:09.374Z,52.13
2022-10-09T10:37:14.082Z,51.51
2022-10-09T10:39:27.057Z,50.65
2022-10-09T10:41:37.654Z,50.38
2022-10-09T10:43:45.798Z,50.19
2022-10-09T10:46:02.722Z,49.63
2022-10-09T10:48:09.515Z,49.33
2022-10-09T10:50:18.207Z,49.25
2022-10-09T10:52:19.858Z,50.10
2022-10-09T10:54:33.184Z,49.13
2022-10-09T10:56:40.093Z,49.07
2022-10-09T10:58:53.199Z,48.90
2022-10-09T11:01:10.988Z,48.23
2022-10-09T11:03:34.569Z,48.31
2022-10-09T11:05:50.439Z,48.22
2022-10-09T11:07:54.450Z,48.28
2022-10-09T11:10:17.840Z,48.87
2022-10-09T11:12:47.852Z,48.37
2022-10-09T11:15:07.183Z,48.11
2022-10-09T11:17:36.053Z,47.52
2022-10-09T11:19:46.766Z,47.42
2022-10-09T11:22:09.723Z,47.71
2022-10-09T11:24:24.236Z,46.93
2022-10-09T11:27:05.411Z,45.78
2022-10-09T11:29:17.950Z,45.05
2022-10-09T11:31:27.134Z,45.10
2022-10-09T11:33:42.082Z,44.30
2022-10-09T11:36:04.554Z,43.89
2022-10-09T11:38:29.158Z,42.71
2022-10-09T11:40:34.927Z,42.48
2022-10-09T11:42:36.894Z,42.74
2022-10-09T11:44:53.639Z,41.83
2022-10-09T11:47:26.156Z,41.94
2022-10-09T11:49:36.542Z,41.30
2022-10-09T11:51:57.072Z,41.16
2022-10-09T11:53:59.576Z,40.95
2022-10-09T11:56:06.804Z,41.01
2022-10-09T11:58:29.531Z,41.16
2022-10-09T12:00:33.758Z,41.25
2022-10-09T12:02:37.010Z,40.67
2022-10-09T12:04:55.372Z,40.82
2022-10-09T12:07:07.393Z,40.54
2022-10-09T12:09:09.810Z,40.72
2022-10-09T12:11:19.481Z,40.14
2022-10-09T12:13:42.930Z,39.62
2022-10-09T12:15:50.424Z,39.60
2022-10-09T12:17:52.257Z,39.43
2022-10-09T12:20:00.884Z,39.74
2022-10-09T12:22:14.532Z,39.50
2022-10-09T12:24:20.823Z,38.98
2022-10-09T12:26:25.076Z,38.80
2022-10-09T12:28:37.959Z,38.64
2022-10-09T12:30:47.482Z,38.74
2022-10-09T12:32:59.849Z,38.39
2022-10-09T12:35:18.686Z,37.93
2022-10-09T12:37:22.585Z,38.16
2022-10-09T12:39:24.519Z,38.10
2022-10-09T12:41:33.998Z,37.84
2022-10-09T12:43:36.474Z,37.42
2022-10-09T12:45:44.747Z,37.42
2022-10-09T12:47:47.050Z,37.28
2022-10-09T12:50:01.248Z,37.65
2022-10-09T12:52:03.110Z,37.54
2022-10-09T12:54:09.750Z,37.22
2022-10-09T12:56:12.421Z,37.05
2022-10-09T12:58:29.860Z,35.39
2022-10-09T13:00:33.325Z,35.74
2022-10-09T13:02:35.122Z,36.10
2022-10-09T13:04:37.074Z,36.77
2022-10-09T13:06:45.055Z,37.01
2022-10-09T13:08:52.894Z,36.56
2022-10-09T13:10:55.105Z,35.50
2022-10-09T13:12:58.936Z,35.48
2022-10-09T13:15:04.041Z,35.46
2022-10-09T13:17:05.852Z,35.96
2022-10-09T13:19:25.491Z,36.45
2022-10-09T13:21:31.497Z,36.54
2022-10-09T13:23:36.348Z,36.78
2022-10-09T13:25:43.073Z,36.65
2022-10-09T13:27:44.746Z,37.09
2022-10-09T13:29:55.197Z,36.01
2022-10-09T13:31:56.922Z,35.76
2022-10-09T13:33:58.671Z,36.15
2022-10-09T13:36:00.333Z,35.67
2022-10-09T13:38:01.936Z,35.60
2022-10-09T13:40:05.950Z,35.36
2022-10-09T13:42:09.808Z,34.84
2022-10-09T13:44:11.722Z,34.87
2022-10-09T13:46:13.388Z,34.97
2022-10-09T13:48:15.384Z,35.07
2022-10-09T13:50:18.099Z,35.14
2022-10-09T13:52:19.816Z,34.88
2022-10-09T13:54:21.455Z,34.22
2022-10-09T13:56:23.092Z,34.36
2022-10-09T13:58:25.769Z,34.35
2022-10-09T14:00:27.601Z,34.24
2022-10-09T14:02:29.699Z,33.31
2022-10-09T14:04:31.347Z,33.54
2022-10-09T14:06:37.204Z,33.58
2022-10-09T14:08:38.959Z,34.03
2022-10-09T14:10:42.674Z,33.93
2022-10-09T14:12:44.401Z,34.09
2022-10-09T14:14:46.062Z,34.75
2022-10-09T14:16:47.874Z,34.70
2022-10-09T14:18:49.568Z,34.50
2022-10-09T14:20:51.249Z,34.28
2022-10-09T14:22:53.063Z,34.22
2022-10-09T14:24:54.854Z,34.00
2022-10-09T14:26:56.526Z,33.42
2022-10-09T14:29:00.451Z,33.64
2022-10-09T14:31:17.882Z,33.66
2022-10-09T14:33:19.572Z,33.80
2022-10-09T14:35:21.886Z,33.75
2022-10-09T14:37:40.612Z,33.89
2022-10-09T14:39:43.934Z,34.27
2022-10-09T14:41:46.462Z,34.48
2022-10-09T14:43:49.156Z,34.24
2022-10-09T14:45:50.802Z,34.34
2022-10-09T14:47:52.524Z,35.11
2022-10-09T14:49:54.992Z,34.39
2022-10-09T14:51:56.779Z,34.31
2022-10-09T14:53:58.596Z,34.60
2022-10-09T14:56:02.063Z,34.74
2022-10-09T14:58:03.740Z,34.73
2022-10-09T15:00:06.293Z,34.91
2022-10-09T15:02:08.036Z,34.79
2022-10-09T15:04:09.881Z,35.09
2022-10-09T15:06:12.902Z,35.19
2022-10-09T15:08:14.532Z,35.33
2022-10-09T15:10:16.164Z,35.42
2022-10-09T15:12:17.792Z,35.02
2022-10-09T15:14:19.513Z,34.73
2022-10-09T15:16:22.737Z,34.74
2022-10-09T15:18:26.503Z,34.64
2022-10-09T15:20:28.148Z,34.38
2022-10-09T15:22:29.879Z,34.61
2022-10-09T15:24:31.598Z,34.48
2022-10-09T15:26:35.746Z,34.75
2022-10-09T15:28:38.631Z,34.95
2022-10-09T15:30:45.165Z,34.66
2022-10-09T15:32:46.790Z,34.91
2022-10-09T15:34:48.557Z,35.19
2022-10-09T15:36:51.118Z,34.88
2022-10-09T15:38:52.857Z,35.16
2022-10-09T15:40:56.449Z,33.75
2022-10-09T15:42:58.089Z,34.25
2022-10-09T15:44:59.924Z,33.79
2022-10-09T15:47:01.710Z,34.18
2022-10-09T15:49:03.395Z,33.17
2022-10-09T15:51:07.070Z,33.50
2022-10-09T15:53:14.397Z,33.60
2022-10-09T15:55:16.251Z,33.85
2022-10-09T15:57:18.153Z,33.63
2022-10-09T15:59:19.881Z,34.68
2022-10-09T16:01:22.320Z,35.70
2022-10-09T16:03:24.232Z,36.07
2022-10-09T16:05:25.997Z,36.45
2022-10-09T16:07:27.619Z,36.64
2022-10-09T16:09:34.363Z,37.17
2022-10-09T16:11:36.155Z,37.41
2022-10-09T16:13:39.917Z,37.74
2022-10-09T16:15:42.731Z,37.46
2022-10-09T16:17:44.761Z,37.23
2022-10-09T16:19:46.419Z,37.31
2022-10-09T16:21:48.942Z,37.46
2022-10-09T16:23:55.829Z,37.67
2022-10-09T16:26:01.339Z,37.64
2022-10-09T16:28:03.954Z,38.15
2022-10-09T16:30:06.163Z,38.39
2022-10-09T16:32:07.978Z,38.93
2022-10-09T16:34:09.806Z,38.97
2022-10-09T16:36:12.700Z,39.15
2022-10-09T16:38:28.298Z,39.48
2022-10-09T16:40:49.853Z,39.52
2022-10-09T16:42:52.209Z,39.59
2022-10-09T16:44:54.003Z,39.52
2022-10-09T16:46:55.679Z,39.58
2022-10-09T16:48:58.742Z,39.62
2022-10-09T16:51:00.387Z,39.81
2022-10-09T16:53:02.157Z,40.16
2022-10-09T16:55:04.522Z,40.26
2022-10-09T16:57:07.309Z,40.10
2022-10-09T16:59:12.228Z,39.90
2022-10-09T17:01:14.236Z,40.01
2022-10-09T17:03:15.927Z,39.61
2022-10-09T17:05:17.778Z,40.39
2022-10-09T17:07:19.801Z,40.37
2022-10-09T17:09:22.120Z,40.14
2022-10-09T17:11:25.837Z,40.25
2022-10-09T17:13:27.573Z,39.86
2022-10-09T17:15:29.290Z,40.19
2022-10-09T17:17:31.013Z,39.59
2022-10-09T17:19:32.955Z,39.35
2022-10-09T17:21:35.503Z,40.20
2022-10-09T17:23:38.053Z,39.59
2022-10-09T17:25:41.954Z,39.93
2022-10-09T17:27:44.638Z,39.44
2022-10-09T17:29:46.367Z,40.01
2022-10-09T17:31:48.184Z,39.73
2022-10-09T17:33:53.323Z,40.30
2022-10-09T17:35:55.057Z,40.46
2022-10-09T17:37:57.632Z,40.25
2022-10-09T17:39:59.306Z,40.83
2022-10-09T17:42:00.979Z,41.11
2022-10-09T17:44:03.351Z,40.71
2022-10-09T17:46:05.693Z,41.84
2022-10-09T17:48:08.529Z,41.16
2022-10-09T17:50:10.303Z,41.23
2022-10-09T17:52:12.036Z,41.21
2022-10-09T17:54:16.943Z,41.54
2022-10-09T17:56:18.671Z,41.46
2022-10-09T17:58:26.215Z,41.62
2022-10-09T18:00:27.940Z,41.41
2022-10-09T18:02:29.574Z,42.07
2022-10-09T18:04:31.579Z,42.31
2022-10-09T18:06:35.064Z,42.46
2022-10-09T18:08:37.997Z,42.71
2022-10-09T18:10:40.082Z,42.94
2022-10-09T18:12:41.742Z,43.14
2022-10-09T18:14:43.393Z,43.23
2022-10-09T18:16:45.102Z,43.41
2022-10-09T18:18:46.813Z,43.35
2022-10-09T18:20:48.681Z,43.90
2022-10-09T18:22:50.392Z,44.05
2022-10-09T18:24:52.074Z,44.34
2022-10-09T18:26:53.859Z,44.52
2022-10-09T18:28:55.774Z,45.04
2022-10-09T18:30:58.756Z,45.57
2022-10-09T18:33:00.379Z,45.17
2022-10-09T18:35:02.078Z,45.21
2022-10-09T18:37:03.757Z,45.20
2022-10-09T18:39:08.335Z,45.84
2022-10-09T18:41:10.376Z,46.06
2022-10-09T18:43:12.044Z,45.73
2022-10-09T18:45:14.748Z,46.02
2022-10-09T18:47:19.778Z,46.50
2022-10-09T18:49:26.848Z,46.81
2022-10-09T18:51:29.351Z,47.68
2022-10-09T18:53:32.099Z,48.30
2022-10-09T18:55:34.174Z,48.41
2022-10-09T18:57:38.447Z,48.22
2022-10-09T18:59:41.135Z,48.67
2022-10-09T19:01:42.827Z,48.97
2022-10-09T19:03:47.480Z,49.39
2022-10-09T19:05:51.686Z,49.13
2022-10-09T19:07:53.357Z,49.00
2022-10-09T19:09:57.357Z,49.44
2022-10-09T19:11:59.335Z,49.43
2022-10-09T19:14:01.912Z,49.55
2022-10-09T19:16:05.726Z,49.56
2022-10-09T19:18:07.398Z,49.96
2022-10-09T19:20:09.130Z,50.26
2022-10-09T19:22:15.214Z,50.54
2022-10-09T19:24:18.443Z,50.56
2022-10-09T19:26:21.133Z,51.02
2022-10-09T19:28:31.270Z,50.57
2022-10-09T19:30:32.995Z,51.35
2022-10-09T19:32:34.815Z,51.01
2022-10-09T19:34:36.522Z,51.06
2022-10-09T19:36:38.198Z,51.44
2022-10-09T19:38:40.830Z,51.27
2022-10-09T19:40:43.124Z,51.46
2022-10-09T19:42:44.756Z,51.70
2022-10-09T19:44:47.030Z,51.80
2022-10-09T19:46:48.832Z,51.75
2022-10-09T19:48:51.050Z,51.88
2022-10-09T19:50:52.695Z,52.28
2022-10-09T19:52:55.124Z,52.30
2022-10-09T19:54:56.749Z,52.44
2022-10-09T19:56:58.574Z,52.60
2022-10-09T19:59:02.608Z,52.39
2022-10-09T20:01:04.387Z,52.43
2022-10-09T20:03:06.025Z,53.34
2022-10-09T20:05:08.003Z,53.42
2022-10-09T20:07:12.688Z,53.67
2022-10-09T20:09:15.872Z,53.59
2022-10-09T20:11:20.326Z,53.45
2022-10-09T20:13:21.976Z,53.09
2022-10-09T20:15:23.699Z,53.16
2022-10-09T20:17:25.354Z,53.18
2022-10-09T20:19:30.858Z,53.57
2022-10-09T20:21:33.720Z,53.30
2022-10-09T20:23:35.404Z,53.48
2022-10-09T20:25:37.032Z,53.76
2022-10-09T20:27:38.710Z,53.47
2022-10-09T20:29:40.335Z,53.92
2022-10-09T20:31:42.014Z,53.99
2022-10-09T20:33:45.421Z,54.04
2022-10-09T20:35:47.047Z,53.97
2022-10-09T20:37:48.751Z,53.76
2022-10-09T20:39:51.064Z,53.83
2022-10-09T20:41:53.362Z,53.96
2022-10-09T20:43:56.956Z,54.27
2022-10-09T20:45:58.637Z,54.16
2022-10-09T20:48:00.276Z,54.26
2022-10-09T20:50:02.360Z,54.23
2022-10-09T20:52:03.995Z,54.50
2022-10-09T20:54:07.401Z,54.61
2022-10-09T20:56:12.152Z,54.57
2022-10-09T20:58:20.534Z,54.42
2022-10-09T21:00:22.206Z,54.92
2022-10-09T21:02:24.687Z,55.00
2022-10-09T21:04:26.312Z,55.10
2022-10-09T21:06:28.018Z,55.13
2022-10-09T21:08:30.666Z,55.16
2022-10-09T21:10:32.494Z,55.32
2022-10-09T21:12:34.186Z,55.17
2022-10-09T21:14:37.009Z,55.81
2022-10-09T21:16:38.710Z,55.92
2022-10-09T21:18:40.719Z,55.63
2022-10-09T21:20:44.437Z,56.07
2022-10-09T21:22:46.128Z,55.96
2022-10-09T21:24:47.932Z,55.86
2022-10-09T21:26:49.631Z,55.77
2022-10-09T21:28:56.782Z,56.15
2022-10-09T21:31:00.870Z,56.13
2022-10-09T21:33:02.556Z,56.63
2022-10-09T21:35:04.525Z,56.78
2022-10-09T21:37:20.970Z,56.75
2022-10-09T21:39:23.879Z,56.88
2022-10-09T21:41:26.237Z,56.98
2022-10-09T21:43:27.926Z,57.12
2022-10-09T21:45:29.627Z,56.89
2022-10-09T21:47:31.353Z,57.02
2022-10-09T21:49:42.681Z,57.35
2022-10-09T21:51:44.281Z,57.45
2022-10-09T21:53:46.116Z,57.56
2022-10-09T21:55:47.727Z,57.63
2022-10-09T21:57:49.581Z,57.84
2022-10-09T21:59:51.437Z,57.79
2022-10-09T22:01:53.503Z,58.00
2022-10-09T22:03:55.420Z,58.21
2022-10-09T22:05:57.164Z,58.09
2022-10-09T22:07:58.867Z,57.90
2022-10-09T22:10:00.556Z,58.38
2022-10-09T22:12:02.310Z,58.05
2022-10-09T22:14:05.860Z,58.13
2022-10-09T22:16:09.863Z,58.31
2022-10-09T22:18:20.020Z,58.13
2022-10-09T22:20:21.656Z,57.91
2022-10-09T22:22:24.102Z,58.43
2022-10-09T22:24:29.096Z,57.93
2022-10-09T22:26:31.022Z,58.16
2022-10-09T22:28:33.714Z,58.47
2022-10-09T22:30:35.966Z,58.35
2022-10-09T22:32:37.588Z,58.58
2022-10-09T22:34:39.341Z,58.49
2022-10-09T22:36:41.076Z,58.84
2022-10-09T22:38:44.248Z,58.49
2022-10-09T22:40:47.326Z,58.96
2022-10-09T22:42:49.346Z,58.96
2022-10-09T22:44:51.155Z,59.23
2022-10-09T22:46:52.795Z,59.22
2022-10-09T22:48:54.758Z,59.52
2022-10-09T22:50:56.490Z,59.37
2022-10-09T22:52:58.103Z,59.40
2022-10-09T22:55:00.701Z,59.37
2022-10-09T22:57:02.398Z,59.34
2022-10-09T22:59:05.082Z,59.40
2022-10-09T23:01:10.485Z,59.45
2022-10-09T23:03:12.181Z,59.39
2022-10-09T23:05:13.897Z,59.43
2022-10-09T23:07:15.570Z,59.45
2022-10-09T23:09:17.412Z,59.53
2022-10-09T23:11:21.106Z,59.86
2022-10-09T23:13:22.746Z,60.15
2022-10-09T23:15:24.489Z,60.09
2022-10-09T23:17:26.084Z,60.17
2022-10-09T23:19:27.805Z,60.29
2022-10-09T23:21:29.538Z,60.41
2022-10-09T23:23:31.484Z,60.18
2022-10-09T23:25:33.184Z,60.52
2022-10-09T23:27:34.826Z,60.54
2022-10-09T23:29:36.467Z,60.39
2022-10-09T23:31:38.337Z,60.63
2022-10-09T23:33:42.055Z,60.94
2022-10-09T23:35:43.901Z,61.28
2022-10-09T23:37:45.628Z,61.25
2022-10-09T23:39:47.338Z,61.20
2022-10-09T23:41:48.992Z,61.03
2022-10-09T23:43:51.326Z,61.04
2022-10-09T23:45:55.574Z,60.94
2022-10-09T23:47:57.179Z,60.81
2022-10-09T23:50:00.679Z,61.05
2022-10-09T23:52:02.591Z,60.94
2022-10-09T23:54:05.557Z,61.06
2022-10-09T23:56:25.714Z,61.28
2022-10-09T23:58:27.399Z,60.68
